createdAt,value
2023-05-12T00:02:12.475Z,70.40
2023-05-12T00:04:39.160Z,70.70
2023-05-12T00:07:06.195Z,71.30
2023-05-12T00:09:33.369Z,71.40
2023-05-12T00:12:00.318Z,71.90
2023-05-12T00:14:26.790Z,71.80
2023-05-12T00:16:53.754Z,71.80
2023-05-12T00:19:21.143Z,72.30
2023-05-12T00:21:48.555Z,72.30
2023-05-12T00:24:15.061Z,72.30
2023-05-12T00:26:41.934Z,71.60
2023-05-12T00:29:08.396Z,72.20
2023-05-12T00:31:35.237Z,72.10
2023-05-12T00:34:01.977Z,72.10
2023-05-12T00:36:28.451Z,72.10
2023-05-12T00:38:55.324Z,72.10
2023-05-12T00:41:21.932Z,72.00
2023-05-12T00:43:48.796Z,72.10
2023-05-12T00:46:16.978Z,72.10
2023-05-12T00:48:45.298Z,72.00
2023-05-12T00:51:13.330Z,72.00
2023-05-12T00:53:49.056Z,72.00
2023-05-12T00:56:19.198Z,72.00
2023-05-12T00:58:46.498Z,72.00
2023-05-12T01:01:13.275Z,72.00
2023-05-12T01:03:40.418Z,72.00
2023-05-12T01:06:18.622Z,72.00
2023-05-12T01:08:45.731Z,71.90
2023-05-12T01:11:12.499Z,71.90
2023-05-12T01:13:39.106Z,71.90
2023-05-12T01:16:09.499Z,72.10
2023-05-12T01:18:38.690Z,72.10
2023-05-12T01:21:05.717Z,72.00
2023-05-12T01:23:37.741Z,72.00
2023-05-12T01:26:08.875Z,72.10
2023-05-12T01:28:36.848Z,72.00
2023-05-12T01:31:08.234Z,72.30
2023-05-12T01:33:36.571Z,72.00
2023-05-12T01:36:03.603Z,72.30
2023-05-12T01:38:30.148Z,72.30
2023-05-12T01:40:57.109Z,72.70
2023-05-12T01:43:23.611Z,72.70
2023-05-12T01:45:50.474Z,73.00
2023-05-12T01:48:16.902Z,72.50
2023-05-12T01:50:44.105Z,73.10
2023-05-12T01:53:10.558Z,73.50
2023-05-12T01:55:37.576Z,73.80
2023-05-12T01:58:04.316Z,73.60
2023-05-12T02:00:30.803Z,73.30
2023-05-12T02:02:57.739Z,73.30
2023-05-12T02:05:24.253Z,73.30
2023-05-12T02:07:51.290Z,73.20
2023-05-12T02:10:18.038Z,73.20
2023-05-12T02:12:44.662Z,73.30
2023-05-12T02:15:11.690Z,73.00
2023-05-12T02:17:38.201Z,72.90
2023-05-12T02:20:05.182Z,72.50
2023-05-12T02:22:31.976Z,72.80
2023-05-12T02:24:58.427Z,72.50
2023-05-12T02:27:25.264Z,72.50
2023-05-12T02:29:52.083Z,72.60
2023-05-12T02:32:18.516Z,72.60
2023-05-12T02:34:45.257Z,72.60
2023-05-12T02:37:12.022Z,73.40
2023-05-12T02:39:38.497Z,72.60
2023-05-12T02:42:05.751Z,72.50
2023-05-12T02:44:32.176Z,72.60
2023-05-12T02:46:58.988Z,72.60
2023-05-12T02:49:25.438Z,72.60
2023-05-12T02:51:52.571Z,72.60
2023-05-12T02:54:19.030Z,72.60
2023-05-12T02:56:45.829Z,72.70
2023-05-12T02:59:12.613Z,72.70
2023-05-12T03:01:39.449Z,72.70
2023-05-12T03:04:05.913Z,72.70
2023-05-12T03:06:32.769Z,72.70
2023-05-12T03:08:59.220Z,72.70
2023-05-12T03:11:26.084Z,72.30
2023-05-12T03:13:52.592Z,72.10
2023-05-12T03:16:19.904Z,72.20
2023-05-12T03:18:46.430Z,72.10
2023-05-12T03:21:13.355Z,72.00
2023-05-12T03:23:40.192Z,71.80
2023-05-12T03:26:07.018Z,71.70
2023-05-12T03:28:33.869Z,71.40
2023-05-12T03:31:00.334Z,71.30
2023-05-12T03:33:27.231Z,71.30
2023-05-12T03:35:53.662Z,70.90
2023-05-12T03:38:20.380Z,70.80
2023-05-12T03:40:47.127Z,70.40
2023-05-12T03:43:13.571Z,70.50
2023-05-12T03:45:40.433Z,70.40
2023-05-12T03:48:06.944Z,70.40
2023-05-12T03:50:34.199Z,70.20
2023-05-12T03:53:01.119Z,70.20
2023-05-12T03:55:27.900Z,70.20
2023-05-12T03:57:54.344Z,70.30
2023-05-12T04:00:21.160Z,70.10
2023-05-12T04:02:48.141Z,70.10
2023-05-12T04:05:14.775Z,69.80
2023-05-12T04:07:41.550Z,69.80
2023-05-12T04:10:08.977Z,69.80
2023-05-12T04:12:35.449Z,69.80
2023-05-12T04:15:02.695Z,69.70
2023-05-12T04:17:29.581Z,69.60
2023-05-12T04:19:56.491Z,69.60
2023-05-12T04:22:24.813Z,69.90
2023-05-12T04:24:52.325Z,69.80
2023-05-12T04:27:19.295Z,69.50
2023-05-12T04:29:45.758Z,69.50
2023-05-12T04:32:12.707Z,69.50
2023-05-12T04:34:39.268Z,69.50
2023-05-12T04:37:05.927Z,69.50
2023-05-12T04:39:32.767Z,69.50
2023-05-12T04:42:03.381Z,69.70
2023-05-12T04:44:30.246Z,69.60
2023-05-12T04:46:56.677Z,69.50
2023-05-12T04:49:23.137Z,69.60
2023-05-12T04:51:49.833Z,69.50
2023-05-12T04:54:16.302Z,69.50
2023-05-12T04:56:43.122Z,69.20
2023-05-12T04:59:09.919Z,69.20
2023-05-12T05:01:36.478Z,69.60
2023-05-12T05:04:03.391Z,69.30
2023-05-12T05:06:29.858Z,68.60
2023-05-12T05:08:56.703Z,68.70
2023-05-12T05:11:23.389Z,68.90
2023-05-12T05:13:49.878Z,68.70
2023-05-12T05:16:16.421Z,68.80
2023-05-12T05:18:43.498Z,68.00
2023-05-12T05:21:11.084Z,68.30
2023-05-12T05:23:37.583Z,68.10
2023-05-12T05:26:04.677Z,68.00
2023-05-12T05:28:31.164Z,68.00
2023-05-12T05:30:57.666Z,68.60
2023-05-12T05:33:24.269Z,68.00
2023-05-12T05:35:51.273Z,68.20
2023-05-12T05:38:18.394Z,68.20
2023-05-12T05:40:52.943Z,68.50
2023-05-12T05:43:20.881Z,68.50
2023-05-12T05:45:47.899Z,67.80
2023-05-12T05:48:14.376Z,67.30
2023-05-12T05:50:41.229Z,67.30
2023-05-12T05:53:07.724Z,66.90
2023-05-12T05:55:34.674Z,66.60
2023-05-12T05:58:01.474Z,66.30
2023-05-12T06:00:28.004Z,66.40
2023-05-12T06:02:54.537Z,65.40
2023-05-12T06:05:21.440Z,65.00
2023-05-12T06:07:48.451Z,65.40
2023-05-12T06:10:15.303Z,64.10
2023-05-12T06:12:41.789Z,64.40
2023-05-12T06:15:09.251Z,63.40
2023-05-12T06:17:35.774Z,62.90
2023-05-12T06:20:03.320Z,61.40
2023-05-12T06:22:30.147Z,61.30
2023-05-12T06:24:56.784Z,60.10
2023-05-12T06:27:23.721Z,59.40
2023-05-12T06:29:51.359Z,59.20
2023-05-12T06:32:18.497Z,58.60
2023-05-12T06:34:45.006Z,58.20
2023-05-12T06:37:11.915Z,56.60
2023-05-12T06:39:38.382Z,54.90
2023-05-12T06:42:05.418Z,53.30
2023-05-12T06:44:31.863Z,52.20
2023-05-12T06:46:58.584Z,50.60
2023-05-12T06:49:25.434Z,50.30
2023-05-12T06:51:51.953Z,49.20
2023-05-12T06:54:18.770Z,49.60
2023-05-12T06:56:45.237Z,49.20
2023-05-12T06:59:12.058Z,49.70
2023-05-12T07:01:38.589Z,49.70
2023-05-12T07:04:05.540Z,49.90
2023-05-12T07:06:32.033Z,49.50
2023-05-12T07:08:58.536Z,49.00
2023-05-12T07:11:25.359Z,49.50
2023-05-12T07:13:52.361Z,49.90
2023-05-12T07:16:20.367Z,50.00
2023-05-12T07:18:47.080Z,48.20
2023-05-12T07:21:14.252Z,49.40
2023-05-12T07:23:41.263Z,48.10
2023-05-12T07:26:07.840Z,50.00
2023-05-12T07:28:35.894Z,48.10
2023-05-12T07:31:06.739Z,48.10
2023-05-12T07:33:34.995Z,49.00
2023-05-12T07:36:02.218Z,48.10
2023-05-12T07:38:29.151Z,48.30
2023-05-12T07:40:56.051Z,48.40
2023-05-12T07:43:22.633Z,48.80
2023-05-12T07:45:49.508Z,49.40
2023-05-12T07:48:16.342Z,49.40
2023-05-12T07:50:42.821Z,49.60
2023-05-12T07:53:09.689Z,50.20
2023-05-12T07:55:36.127Z,50.20
2023-05-12T07:58:02.970Z,50.60
2023-05-12T08:00:29.567Z,50.80
2023-05-12T08:02:56.679Z,51.50
2023-05-12T08:05:23.295Z,50.70
2023-05-12T08:07:50.163Z,51.50
2023-05-12T08:10:16.992Z,51.60
2023-05-12T08:12:43.447Z,51.20
2023-05-12T08:15:10.487Z,51.40
2023-05-12T08:17:37.019Z,52.10
2023-05-12T08:20:04.494Z,51.60
2023-05-12T08:22:31.868Z,51.20
2023-05-12T08:24:58.331Z,51.50
2023-05-12T08:27:25.372Z,51.00
2023-05-12T08:29:51.865Z,51.50
2023-05-12T08:32:18.820Z,51.80
2023-05-12T08:34:45.351Z,53.00
2023-05-12T08:37:12.558Z,52.30
2023-05-12T08:39:39.475Z,51.60
2023-05-12T08:42:24.772Z,51.70
2023-05-12T08:44:53.266Z,51.70
2023-05-12T08:47:21.542Z,52.40
2023-05-12T08:49:54.633Z,51.30
2023-05-12T08:52:21.310Z,51.80
2023-05-12T08:54:55.939Z,52.00
2023-05-12T08:57:23.749Z,51.80
2023-05-12T08:59:53.691Z,52.40
2023-05-12T09:02:22.599Z,52.40
2023-05-12T09:04:50.705Z,52.30
2023-05-12T09:07:18.649Z,52.40
2023-05-12T09:09:48.774Z,51.30
2023-05-12T09:12:18.371Z,51.90
2023-05-12T09:15:00.307Z,51.20
2023-05-12T09:17:27.598Z,52.30
2023-05-12T09:19:54.419Z,52.60
2023-05-12T09:22:32.306Z,51.80
2023-05-12T09:24:58.998Z,51.40
2023-05-12T09:27:29.843Z,51.10
2023-05-12T09:29:59.505Z,50.20
2023-05-12T09:32:34.225Z,50.80
2023-05-12T09:35:06.077Z,50.60
2023-05-12T09:37:34.873Z,49.00
2023-05-12T09:40:02.867Z,50.30
2023-05-12T09:42:31.046Z,48.80
2023-05-12T09:45:04.728Z,46.30
2023-05-12T09:47:36.306Z,46.40
2023-05-12T09:50:04.320Z,45.20
2023-05-12T09:52:31.727Z,44.40
2023-05-12T09:55:10.872Z,42.70
2023-05-12T09:57:42.287Z,41.40
2023-05-12T10:00:21.217Z,41.30
2023-05-12T10:02:58.181Z,39.20
2023-05-12T10:05:25.523Z,39.30
2023-05-12T10:07:57.429Z,38.80
2023-05-12T10:10:26.574Z,38.70
2023-05-12T10:12:53.073Z,37.90
2023-05-12T10:15:20.888Z,36.90
2023-05-12T10:17:51.487Z,36.00
2023-05-12T10:20:19.887Z,36.50
2023-05-12T10:22:48.602Z,35.70
2023-05-12T10:25:16.618Z,35.10
2023-05-12T10:27:44.569Z,36.70
2023-05-12T10:30:11.836Z,36.40
2023-05-12T10:32:38.715Z,36.10
2023-05-12T10:35:11.906Z,36.90
2023-05-12T10:37:39.777Z,36.90
2023-05-12T10:40:07.623Z,36.80
2023-05-12T10:42:42.277Z,36.90
2023-05-12T10:45:19.957Z,36.40
2023-05-12T10:47:47.484Z,36.50
2023-05-12T10:50:14.998Z,36.70
2023-05-12T10:52:53.515Z,35.30
2023-05-12T10:55:32.138Z,36.70
2023-05-12T10:58:12.515Z,36.70
2023-05-12T11:00:45.048Z,36.80
2023-05-12T11:03:14.730Z,36.30
2023-05-12T11:05:44.251Z,36.90
2023-05-12T11:08:11.773Z,34.80
2023-05-12T11:10:41.980Z,34.00
2023-05-12T11:13:09.011Z,34.40
2023-05-12T11:15:35.701Z,34.30
2023-05-12T11:18:03.803Z,34.90
2023-05-12T11:20:31.015Z,36.10
2023-05-12T11:22:58.088Z,35.70
2023-05-12T11:25:26.933Z,36.70
2023-05-12T11:27:53.977Z,36.30
2023-05-12T11:30:20.533Z,37.30
2023-05-12T11:32:47.506Z,36.20
2023-05-12T11:35:16.456Z,35.80
2023-05-12T11:37:45.127Z,35.80
2023-05-12T11:40:21.135Z,37.00
2023-05-12T11:42:51.037Z,34.40
2023-05-12T11:45:30.717Z,36.10
2023-05-12T11:48:12.019Z,34.60
2023-05-12T11:50:42.171Z,35.00
2023-05-12T11:53:14.226Z,33.10
2023-05-12T11:55:51.522Z,35.30
2023-05-12T11:58:23.696Z,34.90
2023-05-12T12:00:50.792Z,37.10
2023-05-12T12:03:17.573Z,35.00
2023-05-12T12:05:57.084Z,35.60
2023-05-12T12:08:23.604Z,35.10
2023-05-12T12:10:50.408Z,35.50
2023-05-12T12:13:24.593Z,35.00
2023-05-12T12:15:51.991Z,36.00
2023-05-12T12:18:19.145Z,35.60
2023-05-12T12:20:46.977Z,35.70
2023-05-12T12:23:13.707Z,35.80
2023-05-12T12:25:40.159Z,35.20
2023-05-12T12:28:07.091Z,34.70
2023-05-12T12:30:34.468Z,35.80
2023-05-12T12:33:01.329Z,33.20
2023-05-12T12:35:28.190Z,32.90
2023-05-12T12:37:54.951Z,35.20
2023-05-12T12:40:21.428Z,35.00
2023-05-12T12:42:48.292Z,34.30
2023-05-12T12:45:14.778Z,34.90
2023-05-12T12:47:41.267Z,36.20
2023-05-12T12:50:08.928Z,37.00
2023-05-12T12:52:36.757Z,37.80
2023-05-12T12:55:04.478Z,37.90
2023-05-12T12:57:30.922Z,37.30
2023-05-12T12:59:57.799Z,36.60
2023-05-12T13:02:25.069Z,36.50
2023-05-12T13:04:51.671Z,37.90
2023-05-12T13:07:18.496Z,39.00
2023-05-12T13:09:44.958Z,37.50
2023-05-12T13:12:11.792Z,36.80
2023-05-12T13:14:38.274Z,37.70
2023-05-12T13:17:05.305Z,37.30
2023-05-12T13:19:32.203Z,39.30
2023-05-12T13:21:58.678Z,35.90
2023-05-12T13:24:25.349Z,36.00
2023-05-12T13:26:51.827Z,35.40
2023-05-12T13:29:18.514Z,34.90
2023-05-12T13:31:45.151Z,34.00
2023-05-12T13:34:11.957Z,33.30
2023-05-12T13:36:38.672Z,33.70
2023-05-12T13:39:05.242Z,33.00
2023-05-12T13:41:31.772Z,33.50
2023-05-12T13:43:58.227Z,33.00
2023-05-12T13:46:24.710Z,34.10
2023-05-12T13:48:51.704Z,34.80
2023-05-12T13:51:19.557Z,33.60
2023-05-12T13:53:46.487Z,33.50
2023-05-12T13:56:15.093Z,32.90
2023-05-12T13:58:41.810Z,33.70
2023-05-12T14:01:08.782Z,35.50
2023-05-12T14:03:35.515Z,35.40
2023-05-12T14:06:02.047Z,38.00
2023-05-12T14:08:28.582Z,36.40
2023-05-12T14:10:55.834Z,38.00
2023-05-12T14:13:22.510Z,37.60
2023-05-12T14:15:50.352Z,37.70
2023-05-12T14:18:16.984Z,35.90
2023-05-12T14:20:44.285Z,35.90
2023-05-12T14:23:10.810Z,35.80
2023-05-12T14:25:37.304Z,33.30
2023-05-12T14:28:03.868Z,36.10
2023-05-12T14:30:30.774Z,31.90
2023-05-12T14:32:57.332Z,30.60
2023-05-12T14:35:24.096Z,31.10
2023-05-12T14:37:50.564Z,32.30
2023-05-12T14:40:17.636Z,36.90
2023-05-12T14:42:44.118Z,39.60
2023-05-12T14:45:11.090Z,43.50
2023-05-12T14:47:37.687Z,45.40
2023-05-12T14:50:04.728Z,47.60
2023-05-12T14:52:31.256Z,50.50
2023-05-12T14:54:57.999Z,54.10
2023-05-12T14:57:24.489Z,55.30
2023-05-12T14:59:51.324Z,55.20
2023-05-12T15:02:18.098Z,55.10
2023-05-12T15:04:44.849Z,59.60
2023-05-12T15:07:11.326Z,58.10
2023-05-12T15:09:37.769Z,58.50
2023-05-12T15:12:04.629Z,57.40
2023-05-12T15:14:31.087Z,59.60
2023-05-12T15:16:57.601Z,60.00
2023-05-12T15:19:24.234Z,60.70
2023-05-12T15:21:50.746Z,59.80
2023-05-12T15:24:17.690Z,61.50
2023-05-12T15:26:44.147Z,60.70
2023-05-12T15:29:11.033Z,62.20
2023-05-12T15:31:37.696Z,57.30
2023-05-12T15:34:04.314Z,59.70
2023-05-12T15:36:30.912Z,57.30
2023-05-12T15:38:57.521Z,55.60
2023-05-12T15:41:23.979Z,57.40
2023-05-12T15:43:50.425Z,57.70
2023-05-12T15:46:17.020Z,58.60
2023-05-12T15:48:43.875Z,57.70
2023-05-12T15:51:10.380Z,56.10
2023-05-12T15:53:36.845Z,56.90
2023-05-12T15:56:04.594Z,56.00
2023-05-12T15:58:31.777Z,55.40
2023-05-12T16:00:58.721Z,56.90
2023-05-12T16:03:25.346Z,54.80
2023-05-12T16:05:52.601Z,57.00
2023-05-12T16:08:19.166Z,55.00
2023-05-12T16:10:46.024Z,56.70
2023-05-12T16:13:12.482Z,53.60
2023-05-12T16:15:38.993Z,54.20
2023-05-12T16:18:07.042Z,54.10
2023-05-12T16:20:36.233Z,50.50
2023-05-12T16:23:02.704Z,48.80
2023-05-12T16:25:29.242Z,48.70
2023-05-12T16:27:55.917Z,46.90
2023-05-12T16:30:22.433Z,49.40
2023-05-12T16:32:49.174Z,47.50
2023-05-12T16:35:15.815Z,48.40
2023-05-12T16:37:42.293Z,47.80
2023-05-12T16:40:09.230Z,51.90
2023-05-12T16:42:35.667Z,49.90
2023-05-12T16:45:02.181Z,49.50
2023-05-12T16:47:28.703Z,51.10
2023-05-12T16:49:55.663Z,50.40
2023-05-12T16:52:22.128Z,51.90
2023-05-12T16:54:48.611Z,53.40
2023-05-12T16:57:15.087Z,53.40
2023-05-12T16:59:41.551Z,54.30
2023-05-12T17:02:08.371Z,54.20
2023-05-12T17:04:35.036Z,54.80
2023-05-12T17:07:01.537Z,54.40
2023-05-12T17:09:28.010Z,54.20
2023-05-12T17:11:54.941Z,55.00
2023-05-12T17:14:21.486Z,55.10
2023-05-12T17:16:47.950Z,56.10
2023-05-12T17:19:15.162Z,56.10
2023-05-12T17:21:41.842Z,55.60
2023-05-12T17:24:09.154Z,55.10
2023-05-12T17:26:35.759Z,55.00
2023-05-12T17:29:02.730Z,55.30
2023-05-12T17:31:29.411Z,55.70
2023-05-12T17:33:55.972Z,55.10
2023-05-12T17:36:22.693Z,54.90
2023-05-12T17:38:50.322Z,54.30
2023-05-12T17:41:16.906Z,54.10
2023-05-12T17:43:43.488Z,54.90
2023-05-12T17:46:10.594Z,55.30
2023-05-12T17:48:37.072Z,53.00
2023-05-12T17:51:04.051Z,55.00
2023-05-12T17:53:31.651Z,55.00
2023-05-12T17:55:59.297Z,55.50
2023-05-12T17:58:25.887Z,55.90
2023-05-12T18:00:52.473Z,56.00
2023-05-12T18:03:20.039Z,56.60
2023-05-12T18:05:46.984Z,57.00
2023-05-12T18:08:13.453Z,56.10
2023-05-12T18:10:39.916Z,56.00
2023-05-12T18:13:06.730Z,55.70
2023-05-12T18:15:33.212Z,56.50
2023-05-12T18:17:59.737Z,56.70
2023-05-12T18:20:26.329Z,56.80
2023-05-12T18:22:53.286Z,56.60
2023-05-12T18:25:20.029Z,56.10
2023-05-12T18:27:46.775Z,55.50
2023-05-12T18:30:14.075Z,55.00
2023-05-12T18:32:40.702Z,56.20
2023-05-12T18:35:08.575Z,56.10
2023-05-12T18:37:35.056Z,56.10
2023-05-12T18:40:01.893Z,56.10
2023-05-12T18:42:28.368Z,56.30
2023-05-12T18:44:54.815Z,56.40
2023-05-12T18:47:21.278Z,57.20
2023-05-12T18:49:47.730Z,57.30
2023-05-12T18:52:14.196Z,57.50
2023-05-12T18:54:40.674Z,57.60
2023-05-12T18:57:07.461Z,58.20
2023-05-12T18:59:33.929Z,58.50
2023-05-12T19:02:00.561Z,58.70
2023-05-12T19:04:27.309Z,58.90
2023-05-12T19:06:53.773Z,59.80
2023-05-12T19:09:20.267Z,60.10
2023-05-12T19:11:46.751Z,60.10
2023-05-12T19:14:13.298Z,61.40
2023-05-12T19:16:39.869Z,60.80
2023-05-12T19:19:06.447Z,61.00
2023-05-12T19:21:33.316Z,61.70
2023-05-12T19:23:59.852Z,61.60
2023-05-12T19:26:26.358Z,61.80
2023-05-12T19:28:52.944Z,62.30
2023-05-12T19:31:19.818Z,62.50
2023-05-12T19:33:46.456Z,62.90
2023-05-12T19:36:13.377Z,63.30
2023-05-12T19:38:40.269Z,63.80
2023-05-12T19:41:07.090Z,63.90
2023-05-12T19:43:33.553Z,63.90
2023-05-12T19:46:00.355Z,63.80
2023-05-12T19:48:26.876Z,63.80
2023-05-12T19:50:54.356Z,63.80
2023-05-12T19:53:20.800Z,63.70
2023-05-12T19:55:47.640Z,63.70
2023-05-12T19:58:14.468Z,64.10
2023-05-12T20:00:40.931Z,63.80
2023-05-12T20:03:07.540Z,63.60
2023-05-12T20:05:37.433Z,63.60
2023-05-12T20:08:04.043Z,63.70
2023-05-12T20:10:30.525Z,64.00
2023-05-12T20:12:57.326Z,63.80
2023-05-12T20:15:23.926Z,63.80
2023-05-12T20:17:50.761Z,63.70
2023-05-12T20:20:17.298Z,63.80
2023-05-12T20:22:43.754Z,63.70
2023-05-12T20:25:10.260Z,63.80
2023-05-12T20:27:37.052Z,63.20
2023-05-12T20:30:04.220Z,63.20
2023-05-12T20:32:30.782Z,63.40
2023-05-12T20:34:57.480Z,63.90
2023-05-12T20:37:23.998Z,63.20
2023-05-12T20:39:50.875Z,63.40
2023-05-12T20:42:17.314Z,63.50
2023-05-12T20:44:44.094Z,63.50
2023-05-12T20:47:11.040Z,63.70
2023-05-12T20:49:37.567Z,63.80
2023-05-12T20:52:04.824Z,63.50
2023-05-12T20:54:31.785Z,63.70
2023-05-12T20:56:58.782Z,63.80
2023-05-12T20:59:25.240Z,64.10
2023-05-12T21:01:52.121Z,64.30
2023-05-12T21:04:18.852Z,64.50
2023-05-12T21:06:45.382Z,64.80
2023-05-12T21:09:11.840Z,64.50
2023-05-12T21:11:38.308Z,64.40
2023-05-12T21:14:05.077Z,64.40
2023-05-12T21:16:31.588Z,64.70
2023-05-12T21:18:58.511Z,64.30
2023-05-12T21:21:24.971Z,64.40
2023-05-12T21:23:51.427Z,64.30
2023-05-12T21:26:18.258Z,64.40
2023-05-12T21:28:44.757Z,64.40
2023-05-12T21:31:11.220Z,64.70
2023-05-12T21:33:38.059Z,64.50
2023-05-12T21:36:04.941Z,64.40
2023-05-12T21:38:31.852Z,64.50
2023-05-12T21:40:59.074Z,64.30
2023-05-12T21:43:25.887Z,64.40
2023-05-12T21:45:52.421Z,64.20
2023-05-12T21:48:19.381Z,64.00
2023-05-12T21:50:56.182Z,64.30
2023-05-12T21:53:23.035Z,64.00
2023-05-12T21:55:49.639Z,64.00
2023-05-12T21:58:16.115Z,64.20
2023-05-12T22:00:42.906Z,64.10
2023-05-12T22:03:09.467Z,64.30
2023-05-12T22:05:36.134Z,64.30
2023-05-12T22:08:02.958Z,64.40
2023-05-12T22:10:29.438Z,64.30
2023-05-12T22:12:56.293Z,64.40
2023-05-12T22:15:23.251Z,63.90
2023-05-12T22:17:49.734Z,64.30
2023-05-12T22:20:16.358Z,64.30
2023-05-12T22:22:43.066Z,63.20
2023-05-12T22:25:09.786Z,62.80
2023-05-12T22:27:36.709Z,63.70
2023-05-12T22:30:03.916Z,64.50
2023-05-12T22:32:30.498Z,63.50
2023-05-12T22:34:57.034Z,63.80
2023-05-12T22:37:24.221Z,62.70
2023-05-12T22:39:51.298Z,62.80
2023-05-12T22:42:17.737Z,63.10
2023-05-12T22:44:44.386Z,62.50
2023-05-12T22:47:10.899Z,62.70
2023-05-12T22:49:38.005Z,63.30
2023-05-12T22:52:05.274Z,63.00
2023-05-12T22:54:31.715Z,62.30
2023-05-12T22:56:58.533Z,62.50
2023-05-12T22:59:25.014Z,62.60
2023-05-12T23:01:51.930Z,62.20
2023-05-12T23:04:18.911Z,61.10
2023-05-12T23:06:45.516Z,60.40
2023-05-12T23:09:12.500Z,61.20
2023-05-12T23:11:38.961Z,61.40
2023-05-12T23:14:05.884Z,61.90
2023-05-12T23:16:32.716Z,61.40
2023-05-12T23:18:59.215Z,61.90
2023-05-12T23:21:25.999Z,61.80
2023-05-12T23:23:52.506Z,61.50
2023-05-12T23:26:19.409Z,61.90
2023-05-12T23:28:45.865Z,61.40
2023-05-12T23:31:12.686Z,61.90
2023-05-12T23:33:39.505Z,61.60
2023-05-12T23:36:06.199Z,61.20
2023-05-12T23:38:33.202Z,61.30
2023-05-12T23:40:59.667Z,61.70
2023-05-12T23:43:26.645Z,61.80
2023-05-12T23:45:53.160Z,61.30
2023-05-12T23:48:20.169Z,61.20
2023-05-12T23:50:46.621Z,61.20
2023-05-12T23:53:13.050Z,61.30
2023-05-12T23:55:39.913Z,61.10
2023-05-12T23:58:06.357Z,60.60
